sensor_id;sensor_type;location;lat;lon;timestamp;pressure;altitude;pressure_sealevel;temperature;humidity
69528;BME280;57136;51.986;4.468;2023-02-14T00:01:41;103593.41;;;2.69;100.00
69528;BME280;57136;51.986;4.468;2023-02-14T00:04:07;103594.31;;;2.69;100.00
69528;BME280;57136;51.986;4.468;2023-02-14T00:06:34;103591.09;;;2.72;100.00
69528;BME280;57136;51.986;4.468;2023-02-14T00:09:01;103584.78;;;2.68;100.00
69528;BME280;57136;51.986;4.468;2023-02-14T00:11:27;103588.13;;;2.67;100.00
69528;BME280;57136;51.986;4.468;2023-02-14T00:13:52;103589.16;;;2.69;100.00
69528;BME280;57136;51.986;4.468;2023-02-14T00:16:36;103587.34;;;2.68;100.00
69528;BME280;57136;51.986;4.468;2023-02-14T00:19:02;103586.56;;;2.69;100.00
69528;BME280;57136;51.986;4.468;2023-02-14T00:21:27;103579.00;;;2.71;100.00
69528;BME280;57136;51.986;4.468;2023-02-14T00:23:52;103577.72;;;2.66;100.00
69528;BME280;57136;51.986;4.468;2023-02-14T00:26:18;103573.84;;;2.61;100.00
69528;BME280;57136;51.986;4.468;2023-02-14T00:28:43;103567.31;;;2.54;100.00
69528;BME280;57136;51.986;4.468;2023-02-14T00:31:09;103566.03;;;2.49;100.00
69528;BME280;57136;51.986;4.468;2023-02-14T00:33:35;103575.19;;;2.45;100.00
69528;BME280;57136;51.986;4.468;2023-02-14T00:36:05;103569.03;;;2.43;100.00
69528;BME280;57136;51.986;4.468;2023-02-14T00:38:31;103563.72;;;2.42;100.00
69528;BME280;57136;51.986;4.468;2023-02-14T00:40:57;103558.47;;;2.40;100.00
69528;BME280;57136;51.986;4.468;2023-02-14T00:43:22;103565.41;;;2.41;100.00
69528;BME280;57136;51.986;4.468;2023-02-14T00:45:48;103567.84;;;2.39;100.00
69528;BME280;57136;51.986;4.468;2023-02-14T00:48:13;103561.81;;;2.39;100.00
69528;BME280;57136;51.986;4.468;2023-02-14T00:50:39;103552.97;;;2.35;100.00
69528;BME280;57136;51.986;4.468;2023-02-14T00:53:04;103557.06;;;2.33;100.00
69528;BME280;57136;51.986;4.468;2023-02-14T00:55:29;103559.50;;;2.32;100.00
69528;BME280;57136;51.986;4.468;2023-02-14T00:57:55;103554.34;;;2.32;100.00
69528;BME280;57136;51.986;4.468;2023-02-14T01:00:21;103555.28;;;2.32;100.00
69528;BME280;57136;51.986;4.468;2023-02-14T01:02:46;103554.25;;;2.30;100.00
69528;BME280;57136;51.986;4.468;2023-02-14T01:05:11;103544.72;;;2.29;100.00
69528;BME280;57136;51.986;4.468;2023-02-14T01:07:37;103544.72;;;2.29;100.00
69528;BME280;57136;51.986;4.468;2023-02-14T01:10:02;103544.31;;;2.24;100.00
69528;BME280;57136;51.986;4.468;2023-02-14T01:12:27;103547.56;;;2.22;100.00
69528;BME280;57136;51.986;4.468;2023-02-14T01:14:53;103536.25;;;2.20;100.00
69528;BME280;57136;51.986;4.468;2023-02-14T01:17:19;103544.72;;;2.19;100.00
69528;BME280;57136;51.986;4.468;2023-02-14T01:19:45;103544.72;;;2.19;100.00
69528;BME280;57136;51.986;4.468;2023-02-14T01:22:10;103543.69;;;2.17;100.00
69528;BME280;57136;51.986;4.468;2023-02-14T01:24:35;103533.41;;;2.17;100.00
69528;BME280;57136;51.986;4.468;2023-02-14T01:27:00;103536.75;;;2.16;100.00
69528;BME280;57136;51.986;4.468;2023-02-14T01:29:26;103535.09;;;2.16;100.00
69528;BME280;57136;51.986;4.468;2023-02-14T01:31:51;103534.19;;;2.16;100.00
69528;BME280;57136;51.986;4.468;2023-02-14T01:34:16;103534.94;;;2.15;100.00
69528;BME280;57136;51.986;4.468;2023-02-14T01:36:43;103534.69;;;2.22;100.00
69528;BME280;57136;51.986;4.468;2023-02-14T01:39:13;103535.97;;;2.27;100.00
69528;BME280;57136;51.986;4.468;2023-02-14T01:41:41;103536.84;;;2.28;100.00
69528;BME280;57136;51.986;4.468;2023-02-14T01:46:39;103531.09;;;2.20;100.00
69528;BME280;57136;51.986;4.468;2023-02-14T01:49:12;103527.09;;;2.23;100.00
69528;BME280;57136;51.986;4.468;2023-02-14T01:52:28;103536.50;;;2.23;100.00
69528;BME280;57136;51.986;4.468;2023-02-14T01:54:37;103531.88;;;2.19;100.00
69528;BME280;57136;51.986;4.468;2023-02-14T01:57:08;103539.59;;;2.19;100.00
69528;BME280;57136;51.986;4.468;2023-02-14T01:59:41;103540.09;;;2.15;100.00
69528;BME280;57136;51.986;4.468;2023-02-14T02:02:08;103541.00;;;2.15;100.00
69528;BME280;57136;51.986;4.468;2023-02-14T02:04:37;103543.94;;;2.09;100.00
69528;BME280;57136;51.986;4.468;2023-02-14T02:07:06;103539.47;;;2.07;100.00
69528;BME280;57136;51.986;4.468;2023-02-14T02:09:41;103536.00;;;2.06;100.00
69528;BME280;57136;51.986;4.468;2023-02-14T02:12:09;103534.47;;;2.08;100.00
69528;BME280;57136;51.986;4.468;2023-02-14T02:14:34;103526.50;;;2.05;100.00
69528;BME280;57136;51.986;4.468;2023-02-14T02:20:34;103527.28;;;2.04;100.00
69528;BME280;57136;51.986;4.468;2023-02-14T02:32:15;103523.66;;;2.02;100.00
69528;BME280;57136;51.986;4.468;2023-02-14T02:34:43;103530.09;;;2.07;100.00
69528;BME280;57136;51.986;4.468;2023-02-14T02:52:01;103521.59;;;2.08;100.00
69528;BME280;57136;51.986;4.468;2023-02-14T02:54:53;103510.03;;;2.03;100.00
69528;BME280;57136;51.986;4.468;2023-02-14T02:57:25;103510.91;;;2.04;100.00
69528;BME280;57136;51.986;4.468;2023-02-14T02:59:54;103504.59;;;2.21;100.00
69528;BME280;57136;51.986;4.468;2023-02-14T03:02:26;103505.97;;;2.38;100.00
69528;BME280;57136;51.986;4.468;2023-02-14T03:04:57;103508.91;;;2.43;100.00
69528;BME280;57136;51.986;4.468;2023-02-14T03:10:20;103505.56;;;2.44;100.00
69528;BME280;57136;51.986;4.468;2023-02-14T03:24:55;103520.28;;;2.24;100.00
69528;BME280;57136;51.986;4.468;2023-02-14T03:27:48;103514.63;;;2.18;100.00
69528;BME280;57136;51.986;4.468;2023-02-14T03:30:33;103511.53;;;2.12;100.00
69528;BME280;57136;51.986;4.468;2023-02-14T03:33:14;103511.19;;;2.07;100.00
69528;BME280;57136;51.986;4.468;2023-02-14T03:36:20;103513.38;;;2.02;100.00
69528;BME280;57136;51.986;4.468;2023-02-14T03:39:02;103510.19;;;1.94;100.00
69528;BME280;57136;51.986;4.468;2023-02-14T03:41:36;103507.34;;;1.91;100.00
69528;BME280;57136;51.986;4.468;2023-02-14T03:44:06;103511.31;;;1.88;100.00
69528;BME280;57136;51.986;4.468;2023-02-14T03:46:54;103505.13;;;1.86;100.00
69528;BME280;57136;51.986;4.468;2023-02-14T03:49:25;103500.66;;;1.83;100.00
69528;BME280;57136;51.986;4.468;2023-02-14T03:51:53;103499.38;;;1.78;100.00
69528;BME280;57136;51.986;4.468;2023-02-14T03:54:21;103505.44;;;1.78;100.00
69528;BME280;57136;51.986;4.468;2023-02-14T03:56:51;103498.59;;;1.79;100.00
69528;BME280;57136;51.986;4.468;2023-02-14T03:59:25;103506.97;;;1.76;100.00
69528;BME280;57136;51.986;4.468;2023-02-14T04:02:00;103506.19;;;1.77;100.00
69528;BME280;57136;51.986;4.468;2023-02-14T04:04:27;103497.72;;;1.78;100.00
69528;BME280;57136;51.986;4.468;2023-02-14T04:06:55;103494.63;;;1.72;100.00
69528;BME280;57136;51.986;4.468;2023-02-14T04:09:20;103498.59;;;1.69;100.00
69528;BME280;57136;51.986;4.468;2023-02-14T04:11:46;103491.53;;;1.66;100.00
69528;BME280;57136;51.986;4.468;2023-02-14T04:14:15;103498.47;;;1.67;100.00
69528;BME280;57136;51.986;4.468;2023-02-14T04:16:40;103488.19;;;1.67;100.00
69528;BME280;57136;51.986;4.468;2023-02-14T04:19:29;103495.91;;;1.77;100.00
69528;BME280;57136;51.986;4.468;2023-02-14T04:21:55;103495.13;;;1.68;100.00
69528;BME280;57136;51.986;4.468;2023-02-14T04:24:20;103502.84;;;1.68;100.00
69528;BME280;57136;51.986;4.468;2023-02-14T04:26:45;103499.34;;;1.68;100.00
69528;BME280;57136;51.986;4.468;2023-02-14T04:32:10;103495.53;;;1.62;100.00
69528;BME280;57136;51.986;4.468;2023-02-14T04:34:36;103495.53;;;1.62;100.00
69528;BME280;57136;51.986;4.468;2023-02-14T04:37:02;103494.34;;;1.59;100.00
69528;BME280;57136;51.986;4.468;2023-02-14T04:39:28;103500.13;;;1.56;100.00
69528;BME280;57136;51.986;4.468;2023-02-14T04:41:53;103491.78;;;1.59;100.00
69528;BME280;57136;51.986;4.468;2023-02-14T04:44:19;103503.84;;;1.60;100.00
69528;BME280;57136;51.986;4.468;2023-02-14T04:46:44;103495.25;;;1.59;100.00
69528;BME280;57136;51.986;4.468;2023-02-14T04:49:09;103499.63;;;1.60;100.00
69528;BME280;57136;51.986;4.468;2023-02-14T04:51:34;103499.47;;;1.59;100.00
69528;BME280;57136;51.986;4.468;2023-02-14T04:54:00;103497.06;;;1.60;100.00
69528;BME280;57136;51.986;4.468;2023-02-14T04:56:26;103506.69;;;1.63;100.00
69528;BME280;57136;51.986;4.468;2023-02-14T04:58:52;103503.09;;;1.61;100.00
69528;BME280;57136;51.986;4.468;2023-02-14T05:01:21;103500.13;;;1.56;100.00
69528;BME280;57136;51.986;4.468;2023-02-14T05:03:46;103505.53;;;1.59;100.00
69528;BME280;57136;51.986;4.468;2023-02-14T05:06:11;103504.25;;;1.54;100.00
69528;BME280;57136;51.986;4.468;2023-02-14T05:08:36;103500.53;;;1.51;100.00
69528;BME280;57136;51.986;4.468;2023-02-14T05:11:02;103497.81;;;1.49;100.00
69528;BME280;57136;51.986;4.468;2023-02-14T05:13:27;103497.19;;;1.52;100.00
69528;BME280;57136;51.986;4.468;2023-02-14T05:15:53;103498.72;;;1.49;100.00
69528;BME280;57136;51.986;4.468;2023-02-14T05:18:18;103497.56;;;1.46;100.00
69528;BME280;57136;51.986;4.468;2023-02-14T05:20:44;103505.00;;;1.43;100.00
69528;BME280;57136;51.986;4.468;2023-02-14T05:23:09;103506.16;;;1.36;100.00
69528;BME280;57136;51.986;4.468;2023-02-14T05:25:38;103504.72;;;1.29;100.00
69528;BME280;57136;51.986;4.468;2023-02-14T05:28:04;103494.84;;;1.24;100.00
69528;BME280;57136;51.986;4.468;2023-02-14T05:30:29;103494.19;;;1.26;100.00
69528;BME280;57136;51.986;4.468;2023-02-14T05:32:55;103493.44;;;1.27;100.00
69528;BME280;57136;51.986;4.468;2023-02-14T05:35:20;103494.84;;;1.24;100.00
69528;BME280;57136;51.986;4.468;2023-02-14T05:37:46;103495.19;;;1.18;100.00
69528;BME280;57136;51.986;4.468;2023-02-14T05:40:11;103493.28;;;1.15;100.00
69528;BME280;57136;51.986;4.468;2023-02-14T05:42:41;103493.13;;;1.14;100.00
69528;BME280;57136;51.986;4.468;2023-02-14T05:45:06;103488.63;;;1.11;100.00
69528;BME280;57136;51.986;4.468;2023-02-14T05:47:32;103490.44;;;1.12;100.00
69528;BME280;57136;51.986;4.468;2023-02-14T05:49:57;103492.25;;;1.13;100.00
69528;BME280;57136;51.986;4.468;2023-02-14T05:52:23;103487.13;;;1.24;100.00
69528;BME280;57136;51.986;4.468;2023-02-14T05:54:48;103489.16;;;1.28;100.00
69528;BME280;57136;51.986;4.468;2023-02-14T05:57:14;103486.25;;;1.33;100.00
69528;BME280;57136;51.986;4.468;2023-02-14T05:59:39;103484.16;;;1.40;100.00
69528;BME280;57136;51.986;4.468;2023-02-14T06:02:04;103482.66;;;1.52;100.00
69528;BME280;57136;51.986;4.468;2023-02-14T06:04:30;103476.47;;;1.71;100.00
69528;BME280;57136;51.986;4.468;2023-02-14T06:06:55;103479.81;;;1.70;100.00
69528;BME280;57136;51.986;4.468;2023-02-14T06:09:20;103479.34;;;1.63;100.00
69528;BME280;57136;51.986;4.468;2023-02-14T06:11:45;103483.56;;;1.63;100.00
69528;BME280;57136;51.986;4.468;2023-02-14T06:14:11;103476.88;;;1.65;100.00
69528;BME280;57136;51.986;4.468;2023-02-14T06:16:36;103481.63;;;1.60;100.00
69528;BME280;57136;51.986;4.468;2023-02-14T06:19:01;103475.31;;;1.57;100.00
69528;BME280;57136;51.986;4.468;2023-02-14T06:21:27;103477.78;;;1.55;100.00
69528;BME280;57136;51.986;4.468;2023-02-14T06:23:52;103480.84;;;1.51;100.00
69528;BME280;57136;51.986;4.468;2023-02-14T06:26:21;103485.13;;;1.51;100.00
69528;BME280;57136;51.986;4.468;2023-02-14T06:28:46;103486.66;;;1.48;100.00
69528;BME280;57136;51.986;4.468;2023-02-14T06:31:18;103484.84;;;1.47;100.00
69528;BME280;57136;51.986;4.468;2023-02-14T06:33:43;103489.06;;;1.47;100.00
69528;BME280;57136;51.986;4.468;2023-02-14T06:36:09;103494.09;;;1.45;100.00
69528;BME280;57136;51.986;4.468;2023-02-14T06:38:34;103483.56;;;1.42;100.00
69528;BME280;57136;51.986;4.468;2023-02-14T06:41:04;103488.81;;;1.44;100.00
69528;BME280;57136;51.986;4.468;2023-02-14T06:43:30;103488.69;;;1.42;100.00
69528;BME280;57136;51.986;4.468;2023-02-14T06:45:57;103488.53;;;1.41;100.00
69528;BME280;57136;51.986;4.468;2023-02-14T06:48:22;103482.00;;;1.44;100.00
69528;BME280;57136;51.986;4.468;2023-02-14T06:50:48;103487.53;;;1.49;100.00
69528;BME280;57136;51.986;4.468;2023-02-14T06:53:13;103486.75;;;1.50;100.00
69528;BME280;57136;51.986;4.468;2023-02-14T06:55:39;103485.13;;;1.51;100.00
69528;BME280;57136;51.986;4.468;2023-02-14T06:58:04;103481.78;;;1.52;100.00
69528;BME280;57136;51.986;4.468;2023-02-14T07:00:29;103486.28;;;1.64;100.00
69528;BME280;57136;51.986;4.468;2023-02-14T07:02:55;103486.25;;;1.85;100.00
69528;BME280;57136;51.986;4.468;2023-02-14T07:05:20;103483.69;;;1.85;100.00
69528;BME280;57136;51.986;4.468;2023-02-14T07:07:46;103491.25;;;1.94;100.00
69528;BME280;57136;51.986;4.468;2023-02-14T07:10:12;103491.09;;;2.03;100.00
69528;BME280;57136;51.986;4.468;2023-02-14T07:12:37;103488.69;;;2.04;100.00
69528;BME280;57136;51.986;4.468;2023-02-14T07:15:07;103492.41;;;1.98;100.00
69528;BME280;57136;51.986;4.468;2023-02-14T07:17:33;103504.50;;;1.88;100.00
69528;BME280;57136;51.986;4.468;2023-02-14T07:19:59;103496.28;;;1.82;100.00
69528;BME280;57136;51.986;4.468;2023-02-14T07:22:24;103505.94;;;1.74;100.00
69528;BME280;57136;51.986;4.468;2023-02-14T07:24:49;103502.06;;;1.69;100.00
69528;BME280;57136;51.986;4.468;2023-02-14T07:27:15;103502.06;;;1.69;100.00
69528;BME280;57136;51.986;4.468;2023-02-14T07:29:40;103507.97;;;1.68;100.00
69528;BME280;57136;51.986;4.468;2023-02-14T07:32:06;103501.03;;;1.67;100.00
69528;BME280;57136;51.986;4.468;2023-02-14T07:34:31;103505.53;;;1.70;100.00
69528;BME280;57136;51.986;4.468;2023-02-14T07:36:57;103504.91;;;1.72;100.00
69528;BME280;57136;51.986;4.468;2023-02-14T07:39:22;103504.41;;;1.76;100.00
69528;BME280;57136;51.986;4.468;2023-02-14T07:41:48;103505.78;;;1.83;100.00
69528;BME280;57136;51.986;4.468;2023-02-14T07:44:13;103496.13;;;1.91;100.00
69528;BME280;57136;51.986;4.468;2023-02-14T07:46:38;103491.63;;;1.99;100.00
69528;BME280;57136;51.986;4.468;2023-02-14T07:49:04;103496.66;;;2.07;100.00
69528;BME280;57136;51.986;4.468;2023-02-14T07:51:29;103505.63;;;2.23;100.00
69528;BME280;57136;51.986;4.468;2023-02-14T07:53:55;103495.00;;;2.40;100.00
69528;BME280;57136;51.986;4.468;2023-02-14T07:56:20;103496.00;;;2.53;100.00
69528;BME280;57136;51.986;4.468;2023-02-14T07:58:45;103499.44;;;2.64;100.00
69528;BME280;57136;51.986;4.468;2023-02-14T08:01:11;103496.34;;;2.68;100.00
69528;BME280;57136;51.986;4.468;2023-02-14T08:03:36;103500.81;;;2.70;100.00
69528;BME280;57136;51.986;4.468;2023-02-14T08:06:02;103497.69;;;2.85;100.00
69528;BME280;57136;51.986;4.468;2023-02-14T08:08:29;103497.09;;;2.99;100.00
69528;BME280;57136;51.986;4.468;2023-02-14T08:10:55;103491.22;;;3.12;100.00
69528;BME280;57136;51.986;4.468;2023-02-14T08:13:21;103493.44;;;3.30;100.00
69528;BME280;57136;51.986;4.468;2023-02-14T08:15:46;103493.06;;;3.48;100.00
69528;BME280;57136;51.986;4.468;2023-02-14T08:18:35;103491.31;;;3.70;100.00
69528;BME280;57136;51.986;4.468;2023-02-14T08:21:01;103497.31;;;3.93;100.00
69528;BME280;57136;51.986;4.468;2023-02-14T08:23:26;103493.53;;;4.12;100.00
69528;BME280;57136;51.986;4.468;2023-02-14T08:25:52;103492.53;;;4.22;100.00
69528;BME280;57136;51.986;4.468;2023-02-14T08:28:18;103492.50;;;4.33;100.00
69528;BME280;57136;51.986;4.468;2023-02-14T08:30:44;103491.81;;;4.48;100.00
69528;BME280;57136;51.986;4.468;2023-02-14T08:33:10;103495.75;;;4.67;100.00
69528;BME280;57136;51.986;4.468;2023-02-14T08:35:35;103490.66;;;4.80;100.00
69528;BME280;57136;51.986;4.468;2023-02-14T08:38:00;103487.16;;;4.91;100.00
69528;BME280;57136;51.986;4.468;2023-02-14T08:40:26;103495.31;;;5.09;100.00
69528;BME280;57136;51.986;4.468;2023-02-14T08:42:52;103484.72;;;5.18;100.00
69528;BME280;57136;51.986;4.468;2023-02-14T08:45:18;103488.56;;;5.37;100.00
69528;BME280;57136;51.986;4.468;2023-02-14T08:47:43;103487.13;;;5.54;100.00
69528;BME280;57136;51.986;4.468;2023-02-14T08:50:11;103482.09;;;5.69;100.00
69528;BME280;57136;51.986;4.468;2023-02-14T08:52:40;103489.22;;;5.98;100.00
69528;BME280;57136;51.986;4.468;2023-02-14T08:55:06;103481.38;;;6.24;100.00
69528;BME280;57136;51.986;4.468;2023-02-14T08:57:31;103473.22;;;6.44;100.00
69528;BME280;57136;51.986;4.468;2023-02-14T08:59:57;103473.16;;;6.85;100.00
69528;BME280;57136;51.986;4.468;2023-02-14T09:02:23;103475.00;;;7.01;100.00
69528;BME280;57136;51.986;4.468;2023-02-14T09:04:48;103472.75;;;7.35;100.00
69528;BME280;57136;51.986;4.468;2023-02-14T09:07:13;103482.56;;;7.70;100.00
69528;BME280;57136;51.986;4.468;2023-02-14T09:09:39;103469.19;;;8.23;100.00
69528;BME280;57136;51.986;4.468;2023-02-14T09:12:06;103477.47;;;8.48;100.00
69528;BME280;57136;51.986;4.468;2023-02-14T09:14:36;103467.34;;;9.01;100.00
69528;BME280;57136;51.986;4.468;2023-02-14T09:17:02;103469.78;;;9.65;100.00
69528;BME280;57136;51.986;4.468;2023-02-14T09:19:34;103467.31;;;10.57;100.00
69528;BME280;57136;51.986;4.468;2023-02-14T09:22:00;103466.88;;;11.25;100.00
69528;BME280;57136;51.986;4.468;2023-02-14T09:24:28;103472.72;;;11.60;100.00
69528;BME280;57136;51.986;4.468;2023-02-14T09:26:54;103475.47;;;11.63;98.65
69528;BME280;57136;51.986;4.468;2023-02-14T09:29:21;103473.88;;;11.67;98.37
69528;BME280;57136;51.986;4.468;2023-02-14T09:31:47;103473.50;;;12.21;95.71
69528;BME280;57136;51.986;4.468;2023-02-14T09:34:12;103470.69;;;12.61;93.97
69528;BME280;57136;51.986;4.468;2023-02-14T09:36:37;103473.16;;;12.80;91.16
69528;BME280;57136;51.986;4.468;2023-02-14T09:39:21;103477.50;;;12.80;86.14
69528;BME280;57136;51.986;4.468;2023-02-14T09:42:00;103477.25;;;12.28;85.17
69528;BME280;57136;51.986;4.468;2023-02-14T09:47:46;103474.59;;;12.05;85.72
69528;BME280;57136;51.986;4.468;2023-02-14T09:52:52;103476.56;;;11.90;82.98
69528;BME280;57136;51.986;4.468;2023-02-14T09:55:19;103478.47;;;11.73;83.38
69528;BME280;57136;51.986;4.468;2023-02-14T10:00:38;103479.91;;;11.05;83.57
69528;BME280;57136;51.986;4.468;2023-02-14T10:03:13;103472.38;;;10.92;84.85
69528;BME280;57136;51.986;4.468;2023-02-14T10:05:47;103484.88;;;11.19;84.28
69528;BME280;57136;51.986;4.468;2023-02-14T10:11:12;103478.47;;;11.32;81.40
69528;BME280;57136;51.986;4.468;2023-02-14T10:13:46;103481.13;;;11.53;81.69
69528;BME280;57136;51.986;4.468;2023-02-14T10:16:31;103466.16;;;11.49;80.85
69528;BME280;57136;51.986;4.468;2023-02-14T10:21:34;103472.50;;;12.18;78.92
69528;BME280;57136;51.986;4.468;2023-02-14T10:24:10;103473.88;;;12.76;74.49
69528;BME280;57136;51.986;4.468;2023-02-14T10:26:39;103470.22;;;12.95;72.69
69528;BME280;57136;51.986;4.468;2023-02-14T10:29:12;103467.38;;;13.38;70.42
69528;BME280;57136;51.986;4.468;2023-02-14T10:31:59;103467.56;;;13.68;67.90
69528;BME280;57136;51.986;4.468;2023-02-14T10:37:17;103463.59;;;14.94;65.28
69528;BME280;57136;51.986;4.468;2023-02-14T10:40:05;103463.44;;;15.21;62.99
69528;BME280;57136;51.986;4.468;2023-02-14T10:42:52;103465.22;;;15.22;60.87
69528;BME280;57136;51.986;4.468;2023-02-14T10:57:01;103444.81;;;14.51;63.03
69528;BME280;57136;51.986;4.468;2023-02-14T10:59:38;103450.44;;;14.63;63.48
69528;BME280;57136;51.986;4.468;2023-02-14T11:02:12;103447.25;;;14.74;63.83
69528;BME280;57136;51.986;4.468;2023-02-14T11:04:41;103449.22;;;14.52;64.58
69528;BME280;57136;51.986;4.468;2023-02-14T11:07:20;103432.78;;;14.29;64.94
69528;BME280;57136;51.986;4.468;2023-02-14T11:09:46;103437.06;;;13.70;67.35
69528;BME280;57136;51.986;4.468;2023-02-14T11:12:11;103434.38;;;12.93;69.83
69528;BME280;57136;51.986;4.468;2023-02-14T11:17:37;103431.09;;;13.00;70.97
69528;BME280;57136;51.986;4.468;2023-02-14T11:20:21;103420.09;;;12.84;72.85
69528;BME280;57136;51.986;4.468;2023-02-14T11:22:48;103424.78;;;12.93;73.32
69528;BME280;57136;51.986;4.468;2023-02-14T11:27:47;103421.47;;;13.23;69.83
69528;BME280;57136;51.986;4.468;2023-02-14T11:30:29;103421.69;;;13.05;71.61
69528;BME280;57136;51.986;4.468;2023-02-14T11:32:55;103406.25;;;13.63;68.87
69528;BME280;57136;51.986;4.468;2023-02-14T11:35:23;103414.22;;;13.93;68.25
69528;BME280;57136;51.986;4.468;2023-02-14T11:37:53;103409.09;;;13.71;68.07
69528;BME280;57136;51.986;4.468;2023-02-14T11:43:16;103402.31;;;14.34;65.55
69528;BME280;57136;51.986;4.468;2023-02-14T11:45:45;103394.78;;;14.45;64.75
69528;BME280;57136;51.986;4.468;2023-02-14T11:48:20;103392.72;;;14.65;64.35
69528;BME280;57136;51.986;4.468;2023-02-14T11:50:59;103369.59;;;15.14;62.64
69528;BME280;57136;51.986;4.468;2023-02-14T11:53:28;103372.56;;;15.28;61.46
69528;BME280;57136;51.986;4.468;2023-02-14T11:55:57;103361.91;;;15.95;61.11
69528;BME280;57136;51.986;4.468;2023-02-14T12:01:29;103358.78;;;17.53;54.99
69528;BME280;57136;51.986;4.468;2023-02-14T12:03:58;103359.97;;;17.74;52.72
69528;BME280;57136;51.986;4.468;2023-02-14T12:06:30;103353.25;;;17.96;50.87
69528;BME280;57136;51.986;4.468;2023-02-14T12:12:01;103356.97;;;18.07;49.24
69528;BME280;57136;51.986;4.468;2023-02-14T12:14:31;103349.53;;;18.48;51.14
69528;BME280;57136;51.986;4.468;2023-02-14T12:17:04;103354.16;;;17.96;51.44
69528;BME280;57136;51.986;4.468;2023-02-14T12:19:41;103343.75;;;18.83;49.33
69528;BME280;57136;51.986;4.468;2023-02-14T12:22:18;103335.25;;;19.15;48.71
69528;BME280;57136;51.986;4.468;2023-02-14T12:27:59;103338.00;;;18.42;48.92
69528;BME280;57136;51.986;4.468;2023-02-14T12:30:11;103336.41;;;18.55;48.20
69528;BME280;57136;51.986;4.468;2023-02-14T12:32:43;103332.66;;;18.35;48.65
69528;BME280;57136;51.986;4.468;2023-02-14T12:43:54;103315.94;;;17.68;50.95
69528;BME280;57136;51.986;4.468;2023-02-14T12:46:36;103305.22;;;18.20;48.38
69528;BME280;57136;51.986;4.468;2023-02-14T13:01:25;103289.66;;;18.45;48.36
69528;BME280;57136;51.986;4.468;2023-02-14T13:04:31;103281.28;;;18.93;48.69
69528;BME280;57136;51.986;4.468;2023-02-14T13:17:54;103272.69;;;19.15;44.78
69528;BME280;57136;51.986;4.468;2023-02-14T13:26:05;103263.13;;;19.35;43.63
69528;BME280;57136;51.986;4.468;2023-02-14T13:28:31;103259.44;;;19.12;45.83
69528;BME280;57136;51.986;4.468;2023-02-14T13:30:58;103259.53;;;19.20;45.47
69528;BME280;57136;51.986;4.468;2023-02-14T13:33:32;103263.41;;;19.87;42.78
69528;BME280;57136;51.986;4.468;2023-02-14T13:36:07;103255.22;;;19.39;43.23
69528;BME280;57136;51.986;4.468;2023-02-14T13:38:41;103252.91;;;20.09;41.81
69528;BME280;57136;51.986;4.468;2023-02-14T13:41:08;103252.53;;;19.30;43.47
69528;BME280;57136;51.986;4.468;2023-02-14T13:44:09;103255.28;;;19.47;42.53
69528;BME280;57136;51.986;4.468;2023-02-14T13:49:29;103241.81;;;19.07;43.68
69528;BME280;57136;51.986;4.468;2023-02-14T13:52:05;103245.53;;;18.33;45.51
69528;BME280;57136;51.986;4.468;2023-02-14T13:54:47;103252.72;;;18.50;45.97
69528;BME280;57136;51.986;4.468;2023-02-14T14:03:05;103246.72;;;17.21;49.73
69528;BME280;57136;51.986;4.468;2023-02-14T14:10:49;103241.09;;;16.49;51.21
69528;BME280;57136;51.986;4.468;2023-02-14T14:21:38;103228.59;;;16.37;54.75
69528;BME280;57136;51.986;4.468;2023-02-14T14:24:22;103231.16;;;16.34;55.07
69528;BME280;57136;51.986;4.468;2023-02-14T14:27:16;103232.06;;;16.35;54.68
69528;BME280;57136;51.986;4.468;2023-02-14T14:29:54;103234.91;;;16.47;54.58
69528;BME280;57136;51.986;4.468;2023-02-14T14:34:58;103229.59;;;16.95;51.96
69528;BME280;57136;51.986;4.468;2023-02-14T14:37:31;103233.75;;;17.35;50.12
69528;BME280;57136;51.986;4.468;2023-02-14T14:40:01;103229.44;;;17.42;49.76
69528;BME280;57136;51.986;4.468;2023-02-14T14:42:29;103229.13;;;17.85;48.70
69528;BME280;57136;51.986;4.468;2023-02-14T14:45:00;103225.13;;;17.49;49.85
69528;BME280;57136;51.986;4.468;2023-02-14T14:47:40;103222.47;;;18.17;47.68
69528;BME280;57136;51.986;4.468;2023-02-14T14:50:12;103220.78;;;18.20;48.34
69528;BME280;57136;51.986;4.468;2023-02-14T14:52:42;103226.81;;;17.44;52.70
69528;BME280;57136;51.986;4.468;2023-02-14T14:55:19;103219.44;;;17.84;50.83
69528;BME280;57136;51.986;4.468;2023-02-14T14:57:54;103222.81;;;17.07;51.72
69528;BME280;57136;51.986;4.468;2023-02-14T15:05:38;103218.88;;;16.33;53.16
69528;BME280;57136;51.986;4.468;2023-02-14T15:11:14;103220.94;;;16.02;55.07
69528;BME280;57136;51.986;4.468;2023-02-14T15:14:02;103214.69;;;15.97;54.71
69528;BME280;57136;51.986;4.468;2023-02-14T15:16:44;103216.09;;;16.25;54.19
69528;BME280;57136;51.986;4.468;2023-02-14T15:19:31;103208.78;;;16.09;55.48
69528;BME280;57136;51.986;4.468;2023-02-14T15:22:00;103207.22;;;16.18;54.89
69528;BME280;57136;51.986;4.468;2023-02-14T15:24:26;103208.84;;;16.13;54.56
69528;BME280;57136;51.986;4.468;2023-02-14T15:26:52;103213.84;;;15.98;56.09
69528;BME280;57136;51.986;4.468;2023-02-14T15:29:27;103217.03;;;15.84;56.22
69528;BME280;57136;51.986;4.468;2023-02-14T15:31:53;103207.84;;;15.65;56.71
69528;BME280;57136;51.986;4.468;2023-02-14T15:34:24;103218.09;;;15.13;59.68
69528;BME280;57136;51.986;4.468;2023-02-14T15:36:51;103212.63;;;15.04;60.92
69528;BME280;57136;51.986;4.468;2023-02-14T15:39:24;103209.78;;;14.94;62.11
69528;BME280;57136;51.986;4.468;2023-02-14T15:41:53;103207.53;;;15.11;61.72
69528;BME280;57136;51.986;4.468;2023-02-14T15:44:21;103206.69;;;15.12;61.95
69528;BME280;57136;51.986;4.468;2023-02-14T15:46:47;103210.78;;;15.00;62.59